Nearby METAR Reports

 

KMTN - Baltimore/Martin, Maryland, USA
Distance from station: SSE 8mi, 13km
Updated: Wed, 04-May-2016 5:27am EDT
Overcast
Overcast
 Wind from NE
Wind: NE 5 mph , 7 km/h
Temperature: 54°F , 12°C
Dew Point: 52°F , 11°C
Humidity: 94%
Barometer: 29.76 inHg , 1007.8 hPa
Clouds: Overcast
Visibility: 10 miles , 16 km
Cloud details: Overcast 1100 ft
2016/05/04 09:27 KMTN 040927Z AUTO 05004KT 10SM OVC011 12/11 A2976 RMK AO2
KDMH - Baltimore/Dwntwn, Maryland, USA
Distance from station: SW 12mi, 19km
Updated: Wed, 04-May-2016 4:54am EDT

 
Temperature: 54°F , 12°C
Dew Point: 50°F , 10°C
Humidity: 88%
Barometer: 29.77 inHg , 1008.1 hPa
2016/05/04 08:54 KDMH 040854Z AUTO 12/10 A2977 RMK AO1 SLP080 60003 T01220100 55000
 
KBWI - Balto/Wash Intl, Maryland, USA
Distance from station: SSW 20mi, 33km
Updated: Wed, 04-May-2016 5:21am EDT
Overcast
Overcast
 Wind from NE
Wind: NE 7 mph , 11 km/h
Temperature: 54°F , 12°C
Dew Point: 50°F , 10°C
Humidity: 88%
Barometer: 29.74 inHg , 1007.1 hPa
Clouds: Overcast
Visibility: 10 miles , 16 km
Cloud details: Overcast 1100 ft
2016/05/04 09:21 KBWI 040921Z 05006KT 10SM OVC011 12/10 A2974 RMK AO2 T01170100 $
KDMW - Carroll Cnty, Maryland, USA
Distance from station: WNW 30mi, 48km
Updated: Wed, 04-May-2016 5:30am EDT
Heavy drizzle, Overcast
Heavy drizzle, Overcast
 Wind from SSE
Wind: SSE 6 mph , 9 km/h
Temperature: 52°F , 11°C
Dew Point: 48°F , 9°C
Humidity: 88%
Barometer: 29.74 inHg , 1007.1 hPa
Summary: Heavy Drizzle
Clouds: Overcast
Visibility: 4 miles , 6 km
Cloud details: Overcast 400 ft
2016/05/04 09:30 KDMW 040930Z AUTO 15005KT 4SM +DZ OVC004 11/09 A2974 RMK AO2 P0001
 
KNAK - Annapolis/Naval, Maryland, USA
Distance from station: S 30mi, 48km
Updated: Wed, 04-May-2016 4:54am EDT
Overcast
Overcast
 Wind from NE
Wind: NE 5 mph , 7 km/h
Temperature: 54°F , 12°C
Dew Point: 52°F , 11°C
Humidity: 94%
Barometer: 29.75 inHg , 1007.5 hPa
Clouds: Overcast
Visibility: 10 miles , 16 km
Cloud details: Overcast 1200 ft
2016/05/04 08:54 KNAK 040854Z AUTO 05004KT 10SM OVC012 12/11 A2975 RMK AO2 SLP074 T01220106 56007 $
KW29 - Stevensville, Maryland, USA
Distance from station: SSE 31mi, 50km
Updated: Tue, 26-Apr-2016 2:56pm EDT
NOT Current

 
Temperature: 79°F , 26°C
Dew Point: 50°F , 10°C
Humidity: 37%
Barometer: 29.68 inHg , 1005.1 hPa
Visibility: 10 miles , 16 km
2016/04/26 18:56 KW29 261856Z 10SM 26/10 A2968 RMK AO1
 
KCGS - College Park, Maryland, USA
Distance from station: SW 38mi, 61km
Updated: Wed, 04-May-2016 5:25am EDT
Overcast
Overcast
 Wind from calm
Wind: Calm
Temperature: 52°F , 11°C
Dew Point: 52°F , 11°C
Humidity: 100%
Barometer: 29.74 inHg , 1007.1 hPa
Clouds: Overcast
Visibility: 10 miles , 16 km
Cloud details: Overcast 800 ft
2016/05/04 09:25 KCGS 040925Z AUTO 00000KT 10SM OVC008 11/11 A2974 RMK AO1
KGAI - Gaithersburg, Maryland, USA
Distance from station: WSW 40mi, 65km
Updated: Wed, 04-May-2016 5:35am EDT
Overcast
Overcast
 Wind from E
Wind: E 3 mph , 6 km/h
Temperature: 52°F , 11°C
Dew Point: 48°F , 9°C
Humidity: 88%
Barometer: 29.78 inHg , 1008.5 hPa
Clouds: Overcast
Visibility: 5 miles , 8 km
Cloud details: Overcast 400 ft
2016/05/04 09:35 KGAI 040935Z AUTO 08003KT 5SM OVC004 11/09 A2978 RMK AO1
 
KTHV - York, Pennsylvania, USA
Distance from station: NNW 40mi, 65km
Updated: Wed, 04-May-2016 5:01am EDT
Overcast
Overcast
 Wind from E
Wind: E 5 mph , 7 km/h
Temperature: 54°F , 12°C
Dew Point: 52°F , 11°C
Humidity: 94%
Barometer: 29.74 inHg , 1007.1 hPa
Clouds: Overcast
Visibility: 8 miles , 13 km
Cloud details: Mostly cloudy 800 ft
Overcast 3300 ft
2016/05/04 09:01 KTHV 040901Z AUTO 10004KT 8SM BKN008 OVC033 12/11 A2974 RMK AO2 T01170106
KFDK - Frederick, Maryland, USA
Distance from station: W 47mi, 75km
Updated: Wed, 04-May-2016 5:25am EDT
Rain, Overcast
Rain, Overcast
 Wind from SSE
Wind: SSE 5 mph , 7 km/h
Temperature: 54°F , 12°C
Dew Point: 54°F , 12°C
Humidity: 100%
Barometer: 29.77 inHg , 1008.1 hPa
Summary: Rain
Clouds: Overcast
Visibility: 3 miles , 5 km
Cloud details: Overcast 900 ft
2016/05/04 09:25 KFDK 040925Z AUTO 15004KT 3SM RA OVC009 12/12 A2977 RMK AO2
 
KESN - Easton/Newnam, Maryland, USA
Distance from station: SSE 48mi, 78km
Updated: Wed, 04-May-2016 5:31am EDT
Overcast
Overcast
 Wind from ENE
Wind: ENE 5 mph , 7 km/h
Barometer: 29.78 inHg , 1008.5 hPa
Clouds: Overcast
Visibility: 10 miles , 16 km
Cloud details: Overcast 600 ft
2016/05/04 09:31 KESN 040931Z AUTO 06004KT 10SM OVC006 A2978 RMK AO2
KDCA - Washington/Natl, Washington D.c., USA
Distance from station: SW 49mi, 79km
Updated: Wed, 04-May-2016 5:13am EDT
Overcast
Overcast
 Wind from E
Wind: E 6 mph , 9 km/h
Temperature: 55°F , 13°C
Dew Point: 54°F , 12°C
Humidity: 94%
Barometer: 29.75 inHg , 1007.5 hPa
Clouds: Overcast
Visibility: 10 miles , 16 km
Cloud details: Overcast 700 ft
2016/05/04 09:13 KDCA 040913Z 08005KT 10SM OVC007 13/12 A2975 RMK AO2 T01330117
 
KLNS - Lancaster, Pennsylvania, USA
Distance from station: N 49mi, 79km
Updated: Wed, 04-May-2016 5:37am EDT
Light rain, Mist, Overcast
Light rain, Mist, Overcast
 Wind from ESE
Wind: ESE 7 mph , 11 km/h
Temperature: 50°F , 10°C
Wind Chill: 47°F , 8°C
Dew Point: 50°F , 10°C
Humidity: 100%
Barometer: 29.75 inHg , 1007.5 hPa
Summary: Light rain, Mist
Clouds: Overcast
Visibility: 6 miles , 10 km
Cloud details: Partly cloudy 500 ft
Mostly cloudy 1200 ft
Overcast 8500 ft
2016/05/04 09:37 KLNS 040937Z AUTO 11006KT 6SM -RA BR SCT005 BKN012 OVC085 10/10 A2975 RMK AO2 P0001 T01000100
KILG - Wilmington, Delaware, USA
Distance from station: ENE 50mi, 81km
Updated: Wed, 04-May-2016 5:36am EDT
Overcast
Overcast
 Wind from NE
Wind: NE 9 mph , 15 km/h
Temperature: 50°F , 10°C
Wind Chill: 46°F , 8°C
Dew Point: 46°F , 8°C
Humidity: 88%
Barometer: 29.76 inHg , 1007.8 hPa
Clouds: Overcast
Visibility: 10 miles , 16 km
Cloud details: Few Clouds 700 ft
Mostly cloudy 7000 ft
Overcast 8000 ft
2016/05/04 09:36 KILG 040936Z 05008KT 10SM FEW007 BKN070 OVC080 10/08 A2976 RMK AO2 RAE0856 P0000 T01000083 $